Weather at Lihue Airport

Public forecast

Using degrees Fahrenheit for public forecast. Weather courtesy of forecast.io.

Current aviation weather report (METAR) for Lihue Airport

Retrieved 2021/08/02 11:53 UTC (49 minutes ago):

PHLI 021153Z AUTO 06019KT 10SM FEW027 SCT036 BKN055 26/21 A3015

Aviation forecast (TAF) for Lihue Airport

Retrieved 2021/08/02 12:22 UTC (20 minutes ago):

TAF PHLI 021120Z 0212/0312 06018KT P6SM VCSH SCT025 BKN045